KAEJ

Central Colorado Regional Airport

Buena Vista, Colorado, USA
METAR KAEJ 181335Z AUTO 00000KT 4SM -SN SCT018 BKN037 OVC044 M03/M04 A2978 RMK AO2 T10311040
Observed Flight Rules
Jan-18 @ 13:35 UTC (9 minutes ago) Marginal Visual Flight Rules
Visibility Clouds Conditions
4 miles
  • Scattered at 1,800' AGL
  • Broken at 3,700' AGL
  • Overcast at 4,400' AGL
  • Light Snow
Temperatures Readings
Current -3°C / 27°F
Dewpoint -4°C / 25°F
Humidity 93%
Altimeter 29.78" Hg
Pressure 1008.42 hPa
Elevation 2422
METAR KAEJ 181335Z AUTO 00000KT 4SM -SN SCT018 BKN037 OVC044 M03/M04 A2978 RMK AO2 T10311040
Observed Flight Rules
Jan-18 @ 13:35 UTC
(9 minutes ago)
MVFR
Clouds
  • Scattered at 1,800' AGL
  • Broken at 3,700' AGL
  • Overcast at 4,400' AGL
Conditions
  • Light Snow
Temperature Dewpoint
-3°C / 27°F -4°C / 25°F
Humidity Altimeter Pressure
93% 29.78" Hg 1008.42 hPa